Kofu Maru — JDWX — position and weather

sailwx.info

Track history (hours):
 
Tides and Currents Weather Stations Pressure Air Temp Water Temp Dewpoint Dewpoint Depression Visibility Wind Speed Wind Dir Waves Ship Positions

Oceanographic research ship Kofu Maru (Japan)

Detailed information on ship capabilities available from University of Delaware's Ocean Information Center.

Last reported at 2018-Aug-15 08:24 UTC. Time now 2018-Dec-12 16:46 UTC.
Position N 34°58' E 139°42'.
Warning: this ship's position is months out of date.

Length 56 m; beam 9.8 m; draft 3.7 m.

Type: Ship. MMSI: 432762000.

Date/timePositionNaut miles runAvg speedWind from/ knotsBaromVisibWave heightAir tempDewpointWater temp
2018-Aug-15 08:24N 34°58' E 139°42'410.6
2018-Aug-15 08:00N 35°02' E 139°44'510.8
2018-Aug-15 07:30N 35°07' E 139°46'510.3
2018-Aug-15 07:01N 35°12' E 139°46'5 9.4
2018-Aug-15 06:30N 35°17' E 139°45'5 9.9
2018-Aug-15 06:00N 35°21' E 139°42'5 9.8
2018-Aug-15 05:30N 35°26' E 139°42'0 0.7
2018-Aug-15 05:00N 35°26' E 139°42'0 0.1
2018-Aug-15 04:30N 35°26' E 139°42'0 0.1
2018-Aug-15 03:57N 35°26' E 139°42'0 0.0
2018-Aug-15 03:30N 35°26' E 139°42'0 0.0
2018-Aug-15 03:00N 35°26' E 139°42'0 0.0
2018-Aug-15 02:27N 35°26' E 139°42'0 0.0
2018-Aug-15 02:00N 35°26' E 139°42'0 0.0
2018-Aug-15 01:30N 35°26' E 139°42'0 0.1
2018-Aug-15 01:01N 35°26' E 139°42'3 5.7
2018-Aug-15 00:30N 35°27' E 139°39'0 0.0
2018-Aug-15 00:00N 35°27' E 139°39'1 1.8
2018-Aug-14 23:30N 35°28' E 139°40'3 6.0
2018-Aug-14 23:00N 35°26' E 139°43'0 0.9
2018-Aug-14 22:30N 35°26' E 139°43'0 0.0
2018-Aug-14 21:58N 35°26' E 139°43'0 0.0
2018-Aug-14 21:28N 35°26' E 139°43'0 0.0
2018-Aug-14 20:58N 35°26' E 139°43'0 0.0
2018-Aug-14 20:25N 35°26' E 139°43'0 0.0
2018-Aug-14 19:52N 35°26' E 139°43'0 0.0
2018-Aug-14 19:28N 35°26' E 139°43'0 0.0
2018-Aug-14 18:58N 35°26' E 139°43'0 0.0
2018-Aug-14 18:28N 35°26' E 139°43'0 0.0
2018-Aug-14 17:58N 35°26' E 139°43'1 1.8
2018-Aug-14 17:30N 35°26' E 139°44'510.9
2018-Aug-14 17:00N 35°20' E 139°43'511.0
2018-Aug-14 16:30N 35°16' E 139°47'611.1
2018-Aug-14 16:00N 35°10' E 139°47'511.0
2018-Aug-14 15:30N 35°05' E 139°45'610.6
2018-Aug-14 14:58N 34°59' E 139°43'510.4
2018-Aug-14 14:30N 34°55' E 139°41'  
Track history (hours):
 
Tides and Currents Weather Stations Pressure Air Temp Water Temp Dewpoint Dewpoint Depression Visibility Wind Speed Wind Dir Waves Ship Positions

Oceanographic research ship Kofu Maru (Japan)

Detailed information on ship capabilities available from University of Delaware's Ocean Information Center.

Last reported at 2018-Aug-15 08:24 UTC. Time now 2018-Dec-12 16:46 UTC.
Position N 34°58' E 139°42'.
Warning: this ship's position is months out of date.

Length 56 m; beam 9.8 m; draft 3.7 m.

Type: Ship. MMSI: 432762000.

Date/timePositionNaut miles runAvg speedWind from/ knotsBaromVisibWave heightAir tempDewpointWater temp
2018-Aug-15 08:24N 34°58' E 139°42'410.6
2018-Aug-15 08:00N 35°02' E 139°44'510.8
2018-Aug-15 07:30N 35°07' E 139°46'510.3
2018-Aug-15 07:01N 35°12' E 139°46'5 9.4
2018-Aug-15 06:30N 35°17' E 139°45'5 9.9
2018-Aug-15 06:00N 35°21' E 139°42'5 9.8
2018-Aug-15 05:30N 35°26' E 139°42'0 0.7
2018-Aug-15 05:00N 35°26' E 139°42'0 0.1
2018-Aug-15 04:30N 35°26' E 139°42'0 0.1
2018-Aug-15 03:57N 35°26' E 139°42'0 0.0
2018-Aug-15 03:30N 35°26' E 139°42'0 0.0
2018-Aug-15 03:00N 35°26' E 139°42'0 0.0
2018-Aug-15 02:27N 35°26' E 139°42'0 0.0
2018-Aug-15 02:00N 35°26' E 139°42'0 0.0
2018-Aug-15 01:30N 35°26' E 139°42'0 0.1
2018-Aug-15 01:01N 35°26' E 139°42'3 5.7
2018-Aug-15 00:30N 35°27' E 139°39'0 0.0
2018-Aug-15 00:00N 35°27' E 139°39'1 1.8
2018-Aug-14 23:30N 35°28' E 139°40'3 6.0
2018-Aug-14 23:00N 35°26' E 139°43'0 0.9
2018-Aug-14 22:30N 35°26' E 139°43'0 0.0
2018-Aug-14 21:58N 35°26' E 139°43'0 0.0
2018-Aug-14 21:28N 35°26' E 139°43'0 0.0
2018-Aug-14 20:58N 35°26' E 139°43'0 0.0
2018-Aug-14 20:25N 35°26' E 139°43'0 0.0
2018-Aug-14 19:52N 35°26' E 139°43'0 0.0
2018-Aug-14 19:28N 35°26' E 139°43'0 0.0
2018-Aug-14 18:58N 35°26' E 139°43'0 0.0
2018-Aug-14 18:28N 35°26' E 139°43'0 0.0
2018-Aug-14 17:58N 35°26' E 139°43'1 1.8
2018-Aug-14 17:30N 35°26' E 139°44'510.9
2018-Aug-14 17:00N 35°20' E 139°43'511.0
2018-Aug-14 16:30N 35°16' E 139°47'611.1
2018-Aug-14 16:00N 35°10' E 139°47'511.0
2018-Aug-14 15:30N 35°05' E 139°45'610.6
2018-Aug-14 14:58N 34°59' E 139°43'510.4
2018-Aug-14 14:30N 34°55' E 139°41'  

Dump ship's entire track history